createdAt,value
2024-02-26T00:02:20.534Z,3.80
2024-02-26T00:04:49.894Z,3.00
2024-02-26T00:07:17.939Z,3.20
2024-02-26T00:09:45.884Z,4.10
2024-02-26T00:12:13.896Z,4.30
2024-02-26T00:14:42.443Z,3.33
2024-02-26T00:17:10.418Z,3.73
2024-02-26T00:19:38.500Z,4.20
2024-02-26T00:22:07.885Z,3.10
2024-02-26T00:24:35.878Z,4.17
2024-02-26T00:27:04.592Z,3.33
2024-02-26T00:29:33.557Z,2.97
2024-02-26T00:32:01.552Z,3.87
2024-02-26T00:34:29.697Z,3.37
2024-02-26T00:36:57.713Z,3.87
2024-02-26T00:39:27.078Z,3.60
2024-02-26T00:41:55.083Z,3.90
2024-02-26T00:44:23.153Z,3.33
2024-02-26T00:46:51.165Z,3.43
2024-02-26T00:49:19.182Z,2.97
2024-02-26T00:51:47.141Z,4.33
2024-02-26T00:54:15.194Z,4.77
2024-02-26T00:56:44.539Z,3.50
2024-02-26T00:59:12.562Z,3.93
2024-02-26T01:01:40.585Z,3.57
2024-02-26T01:04:08.698Z,3.87
2024-02-26T01:06:36.862Z,3.43
2024-02-26T01:09:05.129Z,3.83
2024-02-26T01:11:33.163Z,3.00
2024-02-26T01:14:02.494Z,3.03
2024-02-26T01:16:32.026Z,2.90
2024-02-26T01:19:00.191Z,3.10
2024-02-26T01:21:30.488Z,3.70
2024-02-26T01:23:58.546Z,3.27
2024-02-26T01:26:26.551Z,2.83
2024-02-26T01:28:56.077Z,3.40
2024-02-26T01:31:25.356Z,2.90
2024-02-26T01:33:53.978Z,3.13
2024-02-26T01:36:22.341Z,2.97
2024-02-26T01:38:50.338Z,3.27
2024-02-26T01:41:18.434Z,4.03
2024-02-26T01:43:46.396Z,3.10
2024-02-26T01:46:16.264Z,2.97
2024-02-26T01:48:46.701Z,3.40
2024-02-26T01:51:15.947Z,3.10
2024-02-26T01:53:44.475Z,3.70
2024-02-26T01:56:12.947Z,3.07
2024-02-26T01:58:40.958Z,3.33
2024-02-26T02:01:09.017Z,3.20
2024-02-26T02:03:37.110Z,3.83
2024-02-26T02:06:06.853Z,3.40
2024-02-26T02:08:36.241Z,2.53
2024-02-26T02:11:04.539Z,3.40
2024-02-26T02:13:32.538Z,3.10
2024-02-26T02:16:00.494Z,4.10
2024-02-26T02:18:28.487Z,2.90
2024-02-26T02:21:00.670Z,3.50
2024-02-26T02:23:28.666Z,2.97
2024-02-26T02:25:57.266Z,2.67
2024-02-26T02:28:26.258Z,3.50
2024-02-26T02:30:54.511Z,2.90
2024-02-26T02:33:23.268Z,3.73
2024-02-26T02:35:53.493Z,3.50
2024-02-26T02:38:24.406Z,3.27
2024-02-26T02:40:52.369Z,2.80
2024-02-26T02:43:20.329Z,3.80
2024-02-26T02:45:48.290Z,3.97
2024-02-26T02:48:16.428Z,2.83
2024-02-26T02:50:44.750Z,4.10
2024-02-26T02:53:12.766Z,2.90
2024-02-26T02:55:42.101Z,3.80
2024-02-26T02:58:10.206Z,3.50
2024-02-26T03:00:38.267Z,3.90
2024-02-26T03:03:07.501Z,3.60
2024-02-26T03:05:35.502Z,3.60
2024-02-26T03:08:03.504Z,3.40
2024-02-26T03:10:31.485Z,2.47
2024-02-26T03:13:00.794Z,4.63
2024-02-26T03:15:28.801Z,3.50
2024-02-26T03:17:56.870Z,4.03
2024-02-26T03:20:24.882Z,4.30
2024-02-26T03:22:52.892Z,3.20
2024-02-26T03:25:20.866Z,3.67
2024-02-26T03:27:48.817Z,4.40
2024-02-26T03:30:18.283Z,3.40
2024-02-26T03:32:46.661Z,3.77
2024-02-26T03:35:14.956Z,3.80
2024-02-26T03:37:42.963Z,4.43
2024-02-26T03:40:14.080Z,3.80
2024-02-26T03:42:42.056Z,4.00
2024-02-26T03:45:11.166Z,4.10
2024-02-26T03:47:41.627Z,4.03
2024-02-26T03:50:10.441Z,3.90
2024-02-26T03:52:38.590Z,3.63
2024-02-26T03:55:07.037Z,3.33
2024-02-26T03:57:35.018Z,3.77
2024-02-26T04:00:04.393Z,3.93
2024-02-26T04:02:38.867Z,3.30
2024-02-26T04:05:11.969Z,4.30
2024-02-26T04:07:39.937Z,4.07
2024-02-26T04:10:11.361Z,4.20
2024-02-26T04:12:40.738Z,4.83
2024-02-26T04:15:09.671Z,3.87
2024-02-26T04:17:38.242Z,3.83
2024-02-26T04:20:09.377Z,3.23
2024-02-26T04:22:37.332Z,5.00
2024-02-26T04:25:05.713Z,4.00
2024-02-26T04:27:33.768Z,4.13
2024-02-26T04:30:02.063Z,3.67
2024-02-26T04:32:30.254Z,3.57
2024-02-26T04:34:58.338Z,4.20
2024-02-26T04:37:31.995Z,4.40
2024-02-26T04:40:00.992Z,3.80
2024-02-26T04:42:29.065Z,4.17
2024-02-26T04:44:57.452Z,3.60
2024-02-26T04:47:25.582Z,4.00
2024-02-26T04:49:54.083Z,3.70
2024-02-26T04:52:22.861Z,3.60
2024-02-26T04:54:52.474Z,4.07
2024-02-26T04:57:20.476Z,4.53
2024-02-26T04:59:48.550Z,4.20
2024-02-26T05:02:16.976Z,3.43
2024-02-26T05:04:45.065Z,4.30
2024-02-26T05:07:13.726Z,4.30
2024-02-26T05:09:43.285Z,4.37
2024-02-26T05:12:12.914Z,4.33
2024-02-26T05:14:41.490Z,4.77
2024-02-26T05:17:09.524Z,4.20
2024-02-26T05:19:37.586Z,3.80
2024-02-26T05:22:05.671Z,4.37
2024-02-26T05:24:33.676Z,4.33
2024-02-26T05:27:02.207Z,4.27
2024-02-26T05:29:32.001Z,4.00
2024-02-26T05:32:00.000Z,4.73
2024-02-26T05:34:28.139Z,4.80
2024-02-26T05:36:56.280Z,3.80
2024-02-26T05:39:24.400Z,4.70
2024-02-26T05:41:52.425Z,4.63
2024-02-26T05:44:20.496Z,4.07
2024-02-26T05:46:49.840Z,3.70
2024-02-26T05:49:17.953Z,4.77
2024-02-26T05:51:46.015Z,5.47
2024-02-26T05:54:14.091Z,6.43
2024-02-26T05:56:42.155Z,4.97
2024-02-26T05:59:10.188Z,4.30
2024-02-26T06:01:38.232Z,3.90
2024-02-26T06:04:07.643Z,4.90
2024-02-26T06:06:35.892Z,4.10
2024-02-26T06:09:06.365Z,4.53
2024-02-26T06:11:34.458Z,3.90
2024-02-26T06:14:04.238Z,5.17
2024-02-26T06:16:32.761Z,3.67
2024-02-26T06:19:01.607Z,4.20
2024-02-26T06:21:31.294Z,4.20
2024-02-26T06:24:00.308Z,3.90
2024-02-26T06:26:29.957Z,5.03
2024-02-26T06:28:58.076Z,5.63
2024-02-26T06:31:28.653Z,4.10
2024-02-26T06:33:57.168Z,4.23
2024-02-26T06:36:25.538Z,5.10
2024-02-26T06:38:55.920Z,6.57
2024-02-26T06:41:28.287Z,4.57
2024-02-26T06:43:56.412Z,3.90
2024-02-26T06:46:24.418Z,4.60
2024-02-26T06:48:55.709Z,4.50
2024-02-26T06:51:24.410Z,4.83
2024-02-26T06:53:53.950Z,5.17
2024-02-26T06:56:21.928Z,6.03
2024-02-26T06:58:49.939Z,5.93
2024-02-26T07:01:17.945Z,5.10
2024-02-26T07:03:46.074Z,4.10
2024-02-26T07:06:15.235Z,4.97
2024-02-26T07:08:43.307Z,3.87
2024-02-26T07:11:12.873Z,4.70
2024-02-26T07:13:40.882Z,3.97
2024-02-26T07:16:11.352Z,4.57
2024-02-26T07:18:39.968Z,4.03
2024-02-26T07:21:08.138Z,4.03
2024-02-26T07:23:36.168Z,3.60
2024-02-26T07:26:04.550Z,2.63
2024-02-26T07:28:33.886Z,2.93
2024-02-26T07:31:01.866Z,3.67
2024-02-26T07:33:29.944Z,3.83
2024-02-26T07:35:58.108Z,3.40
2024-02-26T07:38:32.446Z,3.63
2024-02-26T07:41:10.055Z,4.17
2024-02-26T07:43:39.518Z,3.60
2024-02-26T07:46:07.910Z,3.87
2024-02-26T07:48:36.149Z,2.80
2024-02-26T07:51:05.575Z,3.50
2024-02-26T07:53:33.740Z,3.20
2024-02-26T07:56:01.839Z,3.13
2024-02-26T07:58:29.911Z,3.70
2024-02-26T08:00:59.321Z,3.60
2024-02-26T08:03:27.510Z,4.00
2024-02-26T08:05:56.307Z,4.00
2024-02-26T08:08:24.529Z,4.63
2024-02-26T08:10:52.598Z,4.37
2024-02-26T08:13:21.016Z,3.20
2024-02-26T08:15:49.031Z,3.90
2024-02-26T08:18:18.451Z,3.43
2024-02-26T08:20:47.188Z,3.43
2024-02-26T08:23:15.299Z,3.77
2024-02-26T08:25:43.245Z,3.63
2024-02-26T08:28:12.408Z,3.40
2024-02-26T08:30:40.430Z,3.43
2024-02-26T08:33:08.511Z,3.37
2024-02-26T08:35:38.022Z,3.53
2024-02-26T08:38:06.368Z,3.13
2024-02-26T08:40:34.454Z,2.70
2024-02-26T08:43:02.516Z,2.70
2024-02-26T08:45:31.066Z,2.87
2024-02-26T08:47:59.841Z,2.73
2024-02-26T08:50:28.032Z,1.83
2024-02-26T08:52:57.444Z,2.90
2024-02-26T08:55:25.509Z,2.57
2024-02-26T08:57:53.821Z,3.10
2024-02-26T09:00:22.226Z,2.53
2024-02-26T09:02:50.629Z,2.17
2024-02-26T09:05:18.840Z,2.40
2024-02-26T09:07:47.526Z,2.50
2024-02-26T09:10:17.133Z,2.40
2024-02-26T09:12:45.372Z,2.40
2024-02-26T09:15:13.949Z,2.80
2024-02-26T09:17:42.167Z,2.63
2024-02-26T09:20:11.409Z,2.60
2024-02-26T09:22:40.045Z,2.17
2024-02-26T09:25:08.753Z,2.43
2024-02-26T09:27:40.869Z,2.10
2024-02-26T09:30:12.008Z,2.33
2024-02-26T09:32:40.577Z,2.40
2024-02-26T09:35:09.442Z,2.80
2024-02-26T09:37:38.144Z,1.80
2024-02-26T09:40:07.329Z,2.80
2024-02-26T09:42:38.270Z,2.53
2024-02-26T09:45:09.793Z,3.20
2024-02-26T09:47:38.865Z,3.23
2024-02-26T09:50:10.150Z,3.00
2024-02-26T09:52:40.175Z,4.03
2024-02-26T09:55:10.287Z,2.80
2024-02-26T09:57:40.280Z,2.33
2024-02-26T10:00:12.747Z,2.20
2024-02-26T10:02:41.306Z,1.97
2024-02-26T10:05:12.494Z,1.83
2024-02-26T10:07:40.615Z,2.10
2024-02-26T10:10:09.283Z,1.60
2024-02-26T10:12:37.307Z,1.57
2024-02-26T10:15:07.486Z,1.53
2024-02-26T10:17:36.103Z,1.33
2024-02-26T10:20:14.733Z,1.40
2024-02-26T10:22:43.253Z,1.73
2024-02-26T10:25:11.313Z,1.70
2024-02-26T10:27:39.354Z,1.57
2024-02-26T10:30:19.663Z,1.50
2024-02-26T10:32:48.939Z,1.47
2024-02-26T10:35:18.847Z,1.10
2024-02-26T10:37:48.422Z,1.13
2024-02-26T10:40:17.265Z,1.60
2024-02-26T10:42:46.680Z,1.20
2024-02-26T10:45:16.336Z,1.70
2024-02-26T10:47:44.843Z,1.53
2024-02-26T10:50:15.334Z,1.57
2024-02-26T10:52:44.190Z,1.70
2024-02-26T10:55:19.258Z,2.00
2024-02-26T10:57:47.854Z,1.40
2024-02-26T11:00:18.364Z,1.73
2024-02-26T11:02:46.568Z,1.73
2024-02-26T11:05:14.713Z,2.30
2024-02-26T11:07:44.030Z,2.50
2024-02-26T11:10:13.765Z,1.97
2024-02-26T11:12:42.142Z,2.03
2024-02-26T11:15:11.372Z,2.40
2024-02-26T11:17:40.972Z,2.07
2024-02-26T11:20:14.052Z,2.30
2024-02-26T11:22:42.375Z,2.23
2024-02-26T11:25:12.389Z,2.47
2024-02-26T11:27:43.421Z,1.73
2024-02-26T11:30:12.908Z,2.30
2024-02-26T11:32:42.396Z,1.60
2024-02-26T11:35:11.750Z,1.70
2024-02-26T11:37:41.648Z,1.30
2024-02-26T11:40:13.934Z,1.30
2024-02-26T11:42:46.306Z,1.40
2024-02-26T11:45:49.131Z,1.33
2024-02-26T11:48:19.792Z,1.40
2024-02-26T11:50:49.961Z,1.00
2024-02-26T11:53:28.608Z,1.30
2024-02-26T11:56:28.126Z,1.30
2024-02-26T11:59:07.937Z,1.10
2024-02-26T12:01:43.409Z,1.30
2024-02-26T12:04:16.944Z,1.60
2024-02-26T12:06:47.372Z,1.43
2024-02-26T12:09:15.889Z,1.20
2024-02-26T12:11:44.692Z,1.17
2024-02-26T12:14:12.794Z,1.30
2024-02-26T12:16:41.397Z,1.20
2024-02-26T12:19:11.126Z,1.50
2024-02-26T12:21:40.603Z,1.30
2024-02-26T12:24:15.805Z,1.40
2024-02-26T12:26:44.140Z,1.03
2024-02-26T12:29:13.117Z,1.17
2024-02-26T12:31:41.597Z,1.40
2024-02-26T12:34:11.656Z,1.00
2024-02-26T12:36:41.636Z,1.23
2024-02-26T12:39:10.686Z,1.00
2024-02-26T12:41:40.341Z,1.27
2024-02-26T12:44:10.094Z,1.17
2024-02-26T12:46:38.105Z,1.03
2024-02-26T12:49:06.540Z,0.90
2024-02-26T12:51:35.513Z,0.90
2024-02-26T12:54:05.222Z,0.90
2024-02-26T12:56:33.526Z,1.03
2024-02-26T12:59:01.654Z,1.10
2024-02-26T13:01:30.027Z,0.90
2024-02-26T13:03:58.573Z,0.90
2024-02-26T13:06:26.810Z,0.80
2024-02-26T13:08:59.323Z,1.20
2024-02-26T13:11:30.082Z,1.00
2024-02-26T13:13:59.004Z,1.00
2024-02-26T13:16:27.561Z,0.90
2024-02-26T13:18:55.664Z,0.83
2024-02-26T13:21:25.793Z,0.90
2024-02-26T13:23:55.899Z,1.00
2024-02-26T13:26:25.650Z,1.23
2024-02-26T13:29:04.495Z,1.03
2024-02-26T13:31:32.626Z,0.90
2024-02-26T13:34:00.856Z,1.10
2024-02-26T13:36:29.134Z,1.00
2024-02-26T13:38:58.255Z,1.20
2024-02-26T13:41:26.455Z,1.00
2024-02-26T13:43:55.037Z,1.30
2024-02-26T13:46:24.396Z,1.00
2024-02-26T13:48:52.535Z,1.07
2024-02-26T13:51:20.628Z,1.40
2024-02-26T13:53:48.684Z,1.00
2024-02-26T13:56:16.919Z,1.20
2024-02-26T13:58:44.946Z,0.90
2024-02-26T14:01:13.082Z,1.00
2024-02-26T14:03:42.552Z,1.10
2024-02-26T14:06:10.937Z,1.03
2024-02-26T14:08:39.029Z,1.00
2024-02-26T14:11:07.176Z,1.00
2024-02-26T14:13:38.382Z,1.30
2024-02-26T14:16:08.204Z,0.90
2024-02-26T14:18:36.348Z,1.33
2024-02-26T14:21:06.194Z,1.23
2024-02-26T14:23:34.414Z,1.17
2024-02-26T14:26:02.779Z,1.10
2024-02-26T14:28:36.413Z,1.13
2024-02-26T14:31:08.448Z,1.53
2024-02-26T14:33:36.686Z,1.10
2024-02-26T14:36:07.125Z,1.10
2024-02-26T14:38:35.298Z,1.20
2024-02-26T14:41:03.508Z,1.20
2024-02-26T14:43:33.003Z,1.47
2024-02-26T14:46:01.307Z,1.27
2024-02-26T14:48:30.765Z,1.07
2024-02-26T14:50:58.917Z,1.20
2024-02-26T14:53:28.452Z,1.10
2024-02-26T14:55:56.476Z,0.90
2024-02-26T14:58:24.502Z,1.27
2024-02-26T15:00:53.763Z,1.50
2024-02-26T15:03:21.910Z,1.30
2024-02-26T15:05:50.145Z,1.17
2024-02-26T15:08:18.909Z,1.10
2024-02-26T15:10:49.973Z,1.07
2024-02-26T15:13:19.456Z,1.13
2024-02-26T15:15:48.369Z,1.43
2024-02-26T15:18:18.198Z,1.40
2024-02-26T15:20:47.416Z,1.20
2024-02-26T15:23:15.936Z,1.30
2024-02-26T15:25:44.332Z,1.10
2024-02-26T15:28:16.230Z,1.10
2024-02-26T15:30:45.244Z,1.37
2024-02-26T15:33:14.536Z,1.43
2024-02-26T15:35:46.127Z,1.20
2024-02-26T15:38:15.798Z,1.70
2024-02-26T15:40:45.696Z,1.60
2024-02-26T15:43:16.522Z,1.60
2024-02-26T15:45:45.052Z,1.00
2024-02-26T15:48:13.656Z,1.10
2024-02-26T15:50:43.520Z,1.53
2024-02-26T15:53:12.094Z,1.03
2024-02-26T15:55:41.243Z,1.00
2024-02-26T15:58:11.975Z,1.30
2024-02-26T16:00:45.327Z,1.20
2024-02-26T16:03:13.814Z,1.30
2024-02-26T16:05:42.747Z,1.50
2024-02-26T16:08:21.775Z,1.50
2024-02-26T16:10:50.750Z,1.47
2024-02-26T16:13:21.237Z,1.33
2024-02-26T16:15:53.600Z,1.30
2024-02-26T16:18:22.584Z,1.50
2024-02-26T16:20:51.412Z,1.10
2024-02-26T16:23:19.909Z,1.30
2024-02-26T16:25:51.358Z,1.20
2024-02-26T16:28:22.631Z,1.30
2024-02-26T16:30:53.188Z,1.00
2024-02-26T16:33:21.330Z,1.27
2024-02-26T16:35:49.432Z,1.20
2024-02-26T16:38:17.499Z,1.53
2024-02-26T16:40:45.562Z,1.37
2024-02-26T16:43:13.522Z,1.10
2024-02-26T16:45:41.777Z,1.20
2024-02-26T16:48:11.240Z,1.00
2024-02-26T16:50:39.360Z,1.30
2024-02-26T16:53:07.519Z,1.47
2024-02-26T16:55:35.533Z,1.30
2024-02-26T16:58:03.606Z,1.30
2024-02-26T17:00:31.635Z,1.40
2024-02-26T17:03:01.710Z,1.73
2024-02-26T17:05:31.107Z,1.40
2024-02-26T17:07:59.143Z,1.20
2024-02-26T17:10:27.176Z,1.30
2024-02-26T17:12:55.167Z,1.20
2024-02-26T17:15:23.237Z,1.20
2024-02-26T17:17:51.476Z,1.53
2024-02-26T17:20:20.011Z,1.30
2024-02-26T17:22:49.447Z,2.30
2024-02-26T17:25:18.412Z,1.60
2024-02-26T17:27:46.396Z,1.03
2024-02-26T17:30:14.699Z,1.03
2024-02-26T17:32:42.832Z,1.20
2024-02-26T17:35:15.071Z,1.80
2024-02-26T17:37:43.191Z,1.20
2024-02-26T17:40:13.883Z,1.40
2024-02-26T17:42:41.972Z,2.07
2024-02-26T17:45:10.883Z,1.37
2024-02-26T17:47:39.095Z,1.60
2024-02-26T17:50:08.127Z,1.17
2024-02-26T17:52:37.932Z,1.17
2024-02-26T17:55:06.999Z,1.23
2024-02-26T17:57:36.524Z,1.30
2024-02-26T18:00:06.345Z,1.23
2024-02-26T18:02:34.790Z,1.20
2024-02-26T18:05:02.874Z,1.33
2024-02-26T18:07:31.174Z,1.20
2024-02-26T18:09:59.477Z,1.33
2024-02-26T18:12:27.791Z,1.57
2024-02-26T18:14:57.222Z,1.57
2024-02-26T18:17:25.331Z,2.00
2024-02-26T18:19:53.659Z,1.80
2024-02-26T18:22:22.292Z,1.60
2024-02-26T18:24:50.329Z,1.30
2024-02-26T18:27:18.336Z,1.50
2024-02-26T18:29:46.405Z,1.33
2024-02-26T18:32:16.962Z,1.33
2024-02-26T18:34:46.111Z,1.23
2024-02-26T18:37:14.341Z,1.30
2024-02-26T18:39:42.575Z,1.23
2024-02-26T18:42:12.264Z,1.90
2024-02-26T18:44:41.627Z,1.40
2024-02-26T18:47:09.729Z,1.67
2024-02-26T18:49:42.958Z,1.77
2024-02-26T18:52:11.204Z,1.30
2024-02-26T18:54:40.390Z,1.90
2024-02-26T18:57:08.875Z,1.30
2024-02-26T18:59:37.569Z,1.10
2024-02-26T19:02:06.397Z,1.80
2024-02-26T19:04:34.387Z,1.10
2024-02-26T19:07:04.000Z,1.30
2024-02-26T19:09:32.194Z,0.90
2024-02-26T19:12:00.269Z,1.63
2024-02-26T19:14:28.743Z,1.33
2024-02-26T19:16:56.701Z,1.23
2024-02-26T19:19:25.010Z,1.57
2024-02-26T19:21:54.160Z,1.27
2024-02-26T19:24:23.612Z,1.60
2024-02-26T19:26:51.752Z,1.47
2024-02-26T19:29:19.801Z,1.57
2024-02-26T19:31:47.853Z,1.30
2024-02-26T19:34:16.027Z,1.60
2024-02-26T19:36:44.651Z,1.30
2024-02-26T19:39:12.768Z,1.37
2024-02-26T19:41:42.190Z,1.30
2024-02-26T19:44:13.398Z,1.37
2024-02-26T19:46:41.490Z,1.50
2024-02-26T19:49:11.842Z,1.50
2024-02-26T19:51:41.885Z,1.53
2024-02-26T19:54:10.008Z,1.50
2024-02-26T19:56:37.999Z,1.40
2024-02-26T19:59:07.369Z,1.73
2024-02-26T20:01:35.559Z,2.10
2024-02-26T20:04:03.642Z,2.20
2024-02-26T20:06:32.537Z,3.27
2024-02-26T20:09:00.806Z,1.57
2024-02-26T20:11:28.805Z,1.70
2024-02-26T20:13:56.860Z,2.20
2024-02-26T20:16:26.188Z,2.30
2024-02-26T20:18:54.576Z,1.40
2024-02-26T20:21:22.672Z,2.20
2024-02-26T20:23:50.827Z,1.40
2024-02-26T20:26:18.916Z,1.60
2024-02-26T20:28:46.967Z,1.63
2024-02-26T20:31:14.942Z,2.27
2024-02-26T20:33:44.878Z,2.30
2024-02-26T20:36:13.034Z,2.23
2024-02-26T20:38:41.156Z,2.33
2024-02-26T20:41:09.255Z,1.70
2024-02-26T20:43:37.262Z,2.37
2024-02-26T20:46:06.026Z,2.60
2024-02-26T20:48:34.316Z,2.00
2024-02-26T20:51:05.264Z,2.33
2024-02-26T20:53:33.331Z,1.70
2024-02-26T20:56:01.572Z,1.90
2024-02-26T20:58:29.580Z,1.77
2024-02-26T21:00:57.596Z,2.10
2024-02-26T21:03:25.726Z,1.70
2024-02-26T21:05:53.906Z,2.00
2024-02-26T21:08:32.469Z,2.00
2024-02-26T21:11:06.972Z,2.27
2024-02-26T21:13:38.147Z,2.10
2024-02-26T21:16:07.206Z,1.87
2024-02-26T21:18:37.768Z,2.03
2024-02-26T21:21:06.919Z,2.60
2024-02-26T21:23:37.196Z,2.63
2024-02-26T21:26:05.653Z,2.47
2024-02-26T21:28:33.657Z,2.20
2024-02-26T21:31:01.904Z,2.83
2024-02-26T21:33:30.121Z,2.30
2024-02-26T21:35:58.895Z,2.27
2024-02-26T21:38:32.659Z,2.17
2024-02-26T21:41:09.254Z,2.43
2024-02-26T21:43:39.112Z,2.87
2024-02-26T21:46:07.791Z,2.43
2024-02-26T21:48:39.450Z,2.23
2024-02-26T21:51:08.154Z,2.40
2024-02-26T21:53:36.198Z,2.60
2024-02-26T21:56:07.700Z,2.50
2024-02-26T21:58:37.691Z,2.53
2024-02-26T22:01:06.174Z,2.20
2024-02-26T22:03:34.664Z,2.33
2024-02-26T22:06:02.761Z,2.00
2024-02-26T22:08:30.779Z,2.50
2024-02-26T22:10:58.860Z,2.50
2024-02-26T22:13:26.951Z,2.40
2024-02-26T22:15:56.326Z,2.37
2024-02-26T22:18:24.454Z,2.53
2024-02-26T22:20:52.591Z,2.60
2024-02-26T22:23:20.625Z,2.53
2024-02-26T22:25:48.774Z,2.80
2024-02-26T22:28:16.752Z,2.57
2024-02-26T22:30:45.333Z,3.20
2024-02-26T22:33:15.101Z,2.83
2024-02-26T22:35:43.372Z,2.67
2024-02-26T22:38:11.690Z,2.97
2024-02-26T22:40:39.917Z,2.57
2024-02-26T22:43:08.431Z,2.40
2024-02-26T22:45:36.602Z,3.13
2024-02-26T22:48:05.459Z,2.73
2024-02-26T22:50:34.904Z,3.07
2024-02-26T22:53:02.918Z,2.50
2024-02-26T22:55:30.883Z,2.70
2024-02-26T22:57:59.441Z,2.10
2024-02-26T23:00:28.306Z,2.87
2024-02-26T23:02:56.728Z,2.90
2024-02-26T23:05:25.845Z,2.90
2024-02-26T23:07:56.467Z,2.97
2024-02-26T23:10:25.178Z,2.50
2024-02-26T23:12:53.823Z,3.17
2024-02-26T23:15:22.267Z,3.27
2024-02-26T23:17:50.436Z,2.60
2024-02-26T23:20:18.490Z,2.47
2024-02-26T23:22:48.302Z,3.00
2024-02-26T23:25:19.909Z,3.40
2024-02-26T23:27:48.951Z,3.03
2024-02-26T23:30:19.125Z,2.73
2024-02-26T23:32:47.419Z,3.40
2024-02-26T23:35:15.452Z,2.43
2024-02-26T23:37:43.423Z,2.70
2024-02-26T23:40:12.155Z,2.90
2024-02-26T23:42:41.658Z,2.80
2024-02-26T23:45:10.464Z,2.43
2024-02-26T23:47:38.618Z,3.13
2024-02-26T23:50:07.906Z,2.60
2024-02-26T23:52:35.993Z,2.97
2024-02-26T23:55:04.089Z,3.00
2024-02-26T23:57:32.414Z,3.37
